createdAt,value
2022-11-29T00:00:31.617Z,100830.84
2022-11-29T00:02:58.475Z,100831.47
2022-11-29T00:05:25.286Z,100826.81
2022-11-29T00:07:52.185Z,100830.50
2022-11-29T00:10:19.142Z,100826.87
2022-11-29T00:12:49.027Z,100824.44
2022-11-29T00:15:15.932Z,100829.63
2022-11-29T00:17:42.804Z,100820.59
2022-11-29T00:20:11.158Z,100810.28
2022-11-29T00:22:38.125Z,100813.31
2022-11-29T00:25:06.049Z,100817.88
2022-11-29T00:27:32.817Z,100819.66
2022-11-29T00:29:59.635Z,100823.69
2022-11-29T00:32:26.376Z,100829.50
2022-11-29T00:34:53.124Z,100823.53
2022-11-29T00:37:19.901Z,100816.66
2022-11-29T00:39:46.637Z,100808.84
2022-11-29T00:42:13.336Z,100825.53
2022-11-29T00:44:40.101Z,100818.59
2022-11-29T00:47:06.948Z,100823.50
2022-11-29T00:49:33.828Z,100816.31
2022-11-29T00:52:00.528Z,100814.38
2022-11-29T00:54:27.266Z,100814.09
2022-11-29T00:56:54.801Z,100814.59
2022-11-29T00:59:21.843Z,100808.84
2022-11-29T01:01:48.685Z,100814.50
2022-11-29T01:04:15.527Z,100813.66
2022-11-29T01:06:42.440Z,100825.28
2022-11-29T01:09:09.156Z,100819.06
2022-11-29T01:11:36.120Z,100820.16
2022-11-29T01:14:04.171Z,100821.41
2022-11-29T01:16:32.345Z,100820.09
2022-11-29T01:18:59.387Z,100811.97
2022-11-29T01:21:26.430Z,100816.47
2022-11-29T01:23:53.775Z,100808.94
2022-11-29T01:26:25.886Z,100803.81
2022-11-29T01:28:53.745Z,100808.84
2022-11-29T01:31:24.898Z,100801.44
2022-11-29T01:33:55.348Z,100801.00
2022-11-29T01:36:22.232Z,100809.72
2022-11-29T01:38:48.904Z,100807.41
2022-11-29T01:41:17.144Z,100815.97
2022-11-29T01:43:56.444Z,100810.06
2022-11-29T01:46:23.629Z,100806.72
2022-11-29T01:48:52.027Z,100820.69
2022-11-29T01:51:18.788Z,100814.06
2022-11-29T01:53:45.588Z,100813.63
2022-11-29T01:56:14.764Z,100806.47
2022-11-29T01:58:42.261Z,100807.81
2022-11-29T02:01:09.132Z,100811.53
2022-11-29T02:03:36.015Z,100806.00
2022-11-29T02:06:03.464Z,100812.22
2022-11-29T02:08:33.923Z,100804.38
2022-11-29T02:11:16.039Z,100807.16
2022-11-29T02:13:54.867Z,100814.16
2022-11-29T02:16:30.998Z,100808.09
2022-11-29T02:18:57.703Z,100815.63
2022-11-29T02:21:30.254Z,100804.22
2022-11-29T02:24:07.678Z,100805.44
2022-11-29T02:26:43.360Z,100807.94
2022-11-29T02:29:29.025Z,100805.94
2022-11-29T02:32:14.623Z,100803.09
2022-11-29T02:35:00.029Z,100800.97
2022-11-29T02:37:38.414Z,100815.09
2022-11-29T02:40:13.656Z,100806.50
2022-11-29T02:42:55.821Z,100810.56
2022-11-29T02:45:23.120Z,100813.34
2022-11-29T02:48:08.760Z,100816.81
2022-11-29T02:50:53.654Z,100821.34
2022-11-29T02:53:20.370Z,100826.59
2022-11-29T02:55:47.089Z,100820.91
2022-11-29T02:58:32.610Z,100824.31
2022-11-29T03:01:07.889Z,100833.31
2022-11-29T03:03:42.507Z,100825.81
2022-11-29T03:06:18.495Z,100829.94
2022-11-29T03:09:05.689Z,100836.09
2022-11-29T03:11:38.633Z,100831.38
2022-11-29T03:14:05.427Z,100845.84
2022-11-29T03:16:43.013Z,100838.09
2022-11-29T03:19:29.244Z,100840.47
2022-11-29T03:22:05.170Z,100845.09
2022-11-29T03:24:36.216Z,100847.47
2022-11-29T03:27:06.808Z,100844.94
2022-11-29T03:29:36.591Z,100843.94
2022-11-29T03:32:14.333Z,100848.78
2022-11-29T03:34:54.286Z,100854.09
2022-11-29T03:37:39.322Z,100847.31
2022-11-29T03:40:06.334Z,100850.78
2022-11-29T03:42:37.090Z,100860.06
2022-11-29T03:45:24.034Z,100866.03
2022-11-29T03:48:17.147Z,100865.66
2022-11-29T03:50:48.253Z,100858.44
2022-11-29T03:53:18.164Z,100854.31
2022-11-29T03:55:53.933Z,100865.59
2022-11-29T03:58:23.465Z,100870.03
2022-11-29T04:00:50.115Z,100860.28
2022-11-29T04:03:22.908Z,100867.13
2022-11-29T04:06:01.892Z,100864.44
2022-11-29T04:08:47.342Z,100863.06
2022-11-29T04:11:36.233Z,100868.66
2022-11-29T04:14:22.210Z,100870.81
2022-11-29T04:16:54.958Z,100870.13
2022-11-29T04:19:40.658Z,100873.31
2022-11-29T04:22:10.464Z,100874.63
2022-11-29T04:24:55.833Z,100874.59
2022-11-29T04:27:22.557Z,100879.56
2022-11-29T04:29:49.441Z,100883.44
2022-11-29T04:32:16.144Z,100881.91
2022-11-29T04:34:54.355Z,100893.22
2022-11-29T04:37:39.193Z,100889.00
2022-11-29T04:40:17.417Z,100888.53
2022-11-29T04:43:06.596Z,100890.72
2022-11-29T04:45:58.624Z,100890.25
2022-11-29T04:48:40.618Z,100894.28
2022-11-29T04:51:21.752Z,100894.13
2022-11-29T04:53:52.779Z,100898.50
2022-11-29T04:56:24.562Z,100900.81
2022-11-29T04:58:57.620Z,100907.28
2022-11-29T05:01:47.020Z,100903.03
2022-11-29T05:04:46.746Z,100902.09
2022-11-29T05:07:36.933Z,100895.88
2022-11-29T05:10:19.065Z,100915.69
2022-11-29T05:12:58.009Z,100911.63
2022-11-29T05:15:43.497Z,100917.19
2022-11-29T05:18:42.375Z,100911.56
2022-11-29T05:21:20.474Z,100913.16
2022-11-29T05:23:59.352Z,100914.72
2022-11-29T05:26:44.040Z,100917.63
2022-11-29T05:29:21.928Z,100919.59
2022-11-29T05:32:07.554Z,100922.03
2022-11-29T05:34:49.020Z,100928.59
2022-11-29T05:37:23.561Z,100924.63
2022-11-29T05:40:02.470Z,100935.41
2022-11-29T05:42:37.061Z,100917.78
2022-11-29T05:45:03.847Z,100936.25
2022-11-29T05:47:41.474Z,100928.66
2022-11-29T05:50:11.506Z,100925.69
2022-11-29T05:52:47.785Z,100931.44
2022-11-29T05:55:14.498Z,100935.13
2022-11-29T05:57:53.563Z,100938.97
2022-11-29T06:00:20.451Z,100933.00
2022-11-29T06:03:04.096Z,100933.97
2022-11-29T06:05:35.478Z,100940.78
2022-11-29T06:08:05.178Z,100939.53
2022-11-29T06:10:34.191Z,100936.38
2022-11-29T06:13:16.034Z,100943.41
2022-11-29T06:15:56.920Z,100951.44
2022-11-29T06:18:50.024Z,100954.34
2022-11-29T06:21:55.460Z,100951.25
2022-11-29T06:24:41.906Z,100947.97
2022-11-29T06:27:31.929Z,100961.09
2022-11-29T06:30:04.841Z,100952.41
2022-11-29T06:32:44.296Z,100953.75
2022-11-29T06:35:13.989Z,100970.22
2022-11-29T06:37:44.061Z,100969.63
2022-11-29T06:40:15.020Z,100967.06
2022-11-29T06:42:42.107Z,100980.72
2022-11-29T06:45:11.076Z,100974.16
2022-11-29T06:47:42.882Z,100973.66
2022-11-29T06:50:24.914Z,100977.50
2022-11-29T06:53:04.418Z,100974.03
2022-11-29T06:55:42.515Z,100966.56
2022-11-29T06:58:18.174Z,100969.03
2022-11-29T07:00:55.445Z,100968.34
2022-11-29T07:03:45.257Z,100963.44
2022-11-29T07:06:19.285Z,100970.06
2022-11-29T07:08:47.716Z,100971.66
2022-11-29T07:11:15.235Z,100972.44
2022-11-29T07:13:42.160Z,100974.62
2022-11-29T07:16:09.103Z,100981.38
2022-11-29T07:18:55.022Z,100973.94
2022-11-29T07:21:32.097Z,100981.94
2022-11-29T07:24:17.691Z,100978.44
2022-11-29T07:27:08.683Z,100981.38
2022-11-29T07:29:55.537Z,100981.66
2022-11-29T07:32:22.502Z,100983.97
2022-11-29T07:34:59.767Z,100986.75
2022-11-29T07:37:29.572Z,100981.66
2022-11-29T07:40:08.458Z,100983.31
2022-11-29T07:42:52.501Z,100977.53
2022-11-29T07:45:32.038Z,100986.09
2022-11-29T07:47:59.246Z,100991.56
2022-11-29T07:50:30.878Z,100995.31
2022-11-29T07:52:59.056Z,100996.87
2022-11-29T07:55:27.998Z,100997.78
2022-11-29T07:57:54.989Z,100988.50
2022-11-29T08:00:21.935Z,101000.34
2022-11-29T08:02:49.829Z,100995.78
2022-11-29T08:05:17.478Z,100997.06
2022-11-29T08:07:44.285Z,100996.56
2022-11-29T08:10:12.720Z,100992.25
2022-11-29T08:12:47.657Z,100997.25
2022-11-29T08:15:14.701Z,101000.13
2022-11-29T08:17:41.491Z,101003.13
2022-11-29T08:20:11.696Z,100999.91
2022-11-29T08:22:38.416Z,101001.38
2022-11-29T08:25:06.273Z,101007.41
2022-11-29T08:27:33.645Z,101003.94
2022-11-29T08:30:00.737Z,101005.50
2022-11-29T08:32:27.783Z,101002.56
2022-11-29T08:34:54.697Z,101003.22
2022-11-29T08:37:21.496Z,101009.94
2022-11-29T08:39:48.235Z,100997.47
2022-11-29T08:42:15.283Z,101005.72
2022-11-29T08:44:43.677Z,100998.06
2022-11-29T08:47:29.800Z,101001.44
2022-11-29T08:50:02.631Z,101000.78
2022-11-29T08:52:48.988Z,100997.56
2022-11-29T08:55:16.403Z,100998.03
2022-11-29T08:57:46.606Z,101001.84
2022-11-29T09:00:17.313Z,100989.19
2022-11-29T09:02:44.273Z,100995.31
2022-11-29T09:05:11.741Z,101000.59
2022-11-29T09:07:39.083Z,100993.56
2022-11-29T09:10:08.425Z,101003.00
2022-11-29T09:12:36.774Z,101001.25
2022-11-29T09:15:08.128Z,100996.31
2022-11-29T09:17:35.108Z,101000.44
2022-11-29T09:20:02.167Z,100997.38
2022-11-29T09:22:28.941Z,100995.41
2022-11-29T09:24:55.848Z,100994.13
2022-11-29T09:27:23.057Z,100990.59
2022-11-29T09:29:49.852Z,100981.09
2022-11-29T09:32:16.840Z,100974.66
2022-11-29T09:34:44.030Z,100985.44
2022-11-29T09:37:11.193Z,100977.75
2022-11-29T09:39:40.852Z,100981.66
2022-11-29T09:42:27.368Z,100983.94
2022-11-29T09:44:56.510Z,100979.50
2022-11-29T09:47:45.941Z,100969.06
2022-11-29T09:50:27.006Z,100970.75
2022-11-29T09:53:12.444Z,100981.38
2022-11-29T09:55:58.141Z,100971.06
2022-11-29T09:58:30.568Z,100977.84
2022-11-29T10:01:06.521Z,100992.00
2022-11-29T10:03:37.809Z,100974.72
2022-11-29T10:06:09.122Z,100977.06
2022-11-29T10:08:40.385Z,100979.94
2022-11-29T10:11:18.391Z,100985.75
2022-11-29T10:13:48.995Z,100974.41
2022-11-29T10:16:21.442Z,100964.16
2022-11-29T10:19:12.726Z,100971.00
2022-11-29T10:21:42.156Z,100968.13
2022-11-29T10:24:20.809Z,100972.63
2022-11-29T10:26:47.711Z,100961.56
2022-11-29T10:29:15.591Z,100966.94
2022-11-29T10:31:44.687Z,100960.84
2022-11-29T10:34:16.047Z,100962.59
2022-11-29T10:36:45.114Z,100972.53
2022-11-29T10:39:30.721Z,100966.31
2022-11-29T10:42:00.086Z,100963.28
2022-11-29T10:44:27.297Z,100968.34
2022-11-29T10:46:54.796Z,100954.31
2022-11-29T10:49:25.189Z,100956.97
2022-11-29T10:51:52.001Z,100949.28
2022-11-29T10:54:37.325Z,100955.78
2022-11-29T10:57:08.822Z,100947.47
2022-11-29T10:59:35.625Z,100941.19
2022-11-29T11:02:04.706Z,100942.56
2022-11-29T11:04:35.960Z,100936.81
2022-11-29T11:07:04.501Z,100940.72
2022-11-29T11:09:37.276Z,100946.44
2022-11-29T11:12:17.285Z,100957.47
2022-11-29T11:14:48.369Z,100941.91
2022-11-29T11:17:19.565Z,100941.66
2022-11-29T11:20:05.912Z,100938.91
2022-11-29T11:22:33.918Z,100934.22
2022-11-29T11:25:06.364Z,100937.84
2022-11-29T11:27:40.160Z,100935.44
2022-11-29T11:30:10.310Z,100932.13
2022-11-29T11:32:37.157Z,100938.28
2022-11-29T11:35:21.608Z,100929.81
2022-11-29T11:37:56.445Z,100947.72
2022-11-29T11:40:29.436Z,100939.75
2022-11-29T11:43:00.976Z,100946.53
2022-11-29T11:45:34.135Z,100942.63
2022-11-29T11:48:14.380Z,100944.84
2022-11-29T11:50:45.346Z,100939.41
2022-11-29T11:53:24.700Z,100955.94
2022-11-29T11:55:59.769Z,100945.31
2022-11-29T11:58:29.897Z,100948.81
2022-11-29T12:01:06.193Z,100946.38
2022-11-29T12:03:48.475Z,100960.34
2022-11-29T12:06:15.325Z,100946.03
2022-11-29T12:08:48.721Z,100946.00
2022-11-29T12:11:19.920Z,100956.53
2022-11-29T12:14:03.700Z,100940.66
2022-11-29T12:16:34.515Z,100939.00
2022-11-29T12:19:05.417Z,100947.47
2022-11-29T12:21:35.178Z,100942.47
2022-11-29T12:24:09.517Z,100947.81
2022-11-29T12:26:58.101Z,100953.38
2022-11-29T12:29:26.733Z,100951.91
2022-11-29T12:32:09.611Z,100949.22
2022-11-29T12:34:36.574Z,100949.19
2022-11-29T12:37:25.336Z,100939.22
2022-11-29T12:39:57.268Z,100938.59
2022-11-29T12:42:36.319Z,100935.28
2022-11-29T12:45:05.203Z,100937.34
2022-11-29T12:47:52.239Z,100934.91
2022-11-29T12:50:41.801Z,100937.97
2022-11-29T12:53:27.851Z,100944.63
2022-11-29T12:56:04.382Z,100939.97
2022-11-29T12:58:52.904Z,100926.22
2022-11-29T13:01:30.688Z,100927.00
2022-11-29T13:04:14.315Z,100929.38
2022-11-29T13:06:48.537Z,100924.31
2022-11-29T13:09:28.757Z,100927.91
2022-11-29T13:11:58.678Z,100924.00
2022-11-29T13:14:42.819Z,100923.69
2022-11-29T13:17:19.608Z,100928.28
2022-11-29T13:20:13.569Z,100934.28
2022-11-29T13:22:48.076Z,100923.16
2022-11-29T13:25:24.375Z,100930.44
2022-11-29T13:28:02.424Z,100930.00
2022-11-29T13:30:29.227Z,100940.12
2022-11-29T13:33:03.800Z,100938.06
2022-11-29T13:35:44.729Z,100937.19
2022-11-29T13:38:34.566Z,100946.66
2022-11-29T13:41:01.869Z,100952.44
2022-11-29T13:43:35.422Z,100948.31
2022-11-29T13:46:20.816Z,100947.84
2022-11-29T13:48:49.677Z,100958.78
2022-11-29T13:51:22.506Z,100958.47
2022-11-29T13:53:49.701Z,100956.78
2022-11-29T13:56:33.041Z,100963.03
2022-11-29T13:59:06.041Z,100965.50
2022-11-29T14:01:43.330Z,100975.59
2022-11-29T14:04:27.548Z,100974.03
2022-11-29T14:07:05.371Z,100974.19
2022-11-29T14:09:35.125Z,100981.63
2022-11-29T14:12:27.514Z,100977.19
2022-11-29T14:14:57.649Z,100979.69
2022-11-29T14:17:30.805Z,100965.34
2022-11-29T14:20:17.486Z,100975.91
2022-11-29T14:23:03.269Z,100980.31
2022-11-29T14:28:23.292Z,100973.16
2022-11-29T14:31:02.034Z,100980.19
2022-11-29T14:33:47.698Z,100981.44
2022-11-29T14:36:33.537Z,100969.22
2022-11-29T14:39:03.753Z,100969.53
2022-11-29T14:42:02.577Z,100952.31
2022-11-29T14:44:40.187Z,100959.06
2022-11-29T14:50:32.303Z,100951.50
2022-11-29T14:52:59.508Z,100941.59
2022-11-29T14:55:31.708Z,100956.66
2022-11-29T14:58:01.840Z,100955.41
2022-11-29T15:00:37.764Z,100940.28
2022-11-29T15:03:28.917Z,100943.81
2022-11-29T15:06:02.036Z,100939.38
2022-11-29T15:08:33.319Z,100945.28
2022-11-29T15:11:13.823Z,100947.12
2022-11-29T15:13:49.830Z,100954.00
2022-11-29T15:16:49.216Z,100949.37
2022-11-29T15:19:36.213Z,100947.97
2022-11-29T15:22:22.739Z,100945.47
2022-11-29T15:24:52.717Z,100949.09
2022-11-29T15:27:19.964Z,100950.62
2022-11-29T15:29:49.878Z,100949.09
2022-11-29T15:32:21.692Z,100952.56
2022-11-29T15:34:50.657Z,100958.41
2022-11-29T15:37:32.874Z,100954.72
2022-11-29T15:40:07.982Z,100958.94
2022-11-29T15:42:47.505Z,100957.22
2022-11-29T15:45:28.609Z,100964.00
2022-11-29T15:47:55.870Z,100969.09
2022-11-29T15:50:33.579Z,100964.16
2022-11-29T15:53:03.958Z,100966.63
2022-11-29T15:55:31.225Z,100962.59
2022-11-29T15:58:03.888Z,100965.38
2022-11-29T16:00:34.099Z,100971.66
2022-11-29T16:03:01.882Z,100971.78
2022-11-29T16:05:33.412Z,100974.44
2022-11-29T16:08:10.824Z,100976.22
2022-11-29T16:10:46.490Z,100975.13
2022-11-29T16:13:25.622Z,100977.50
2022-11-29T16:16:05.126Z,100974.03
2022-11-29T16:18:32.273Z,100980.59
2022-11-29T16:21:00.242Z,100976.94
2022-11-29T16:23:42.436Z,100983.56
2022-11-29T16:26:15.211Z,100979.81
2022-11-29T16:28:46.818Z,100973.91
2022-11-29T16:31:20.516Z,100978.12
2022-11-29T16:33:49.315Z,100981.75
2022-11-29T16:36:17.877Z,100986.06
2022-11-29T16:38:49.295Z,100983.31
2022-11-29T16:41:24.324Z,100985.47
2022-11-29T16:43:56.274Z,100984.94
2022-11-29T16:46:22.952Z,100985.63
2022-11-29T16:48:50.224Z,100992.06
2022-11-29T16:51:31.937Z,100993.47
2022-11-29T16:54:18.534Z,100997.72
2022-11-29T16:56:45.250Z,100989.28
2022-11-29T16:59:20.531Z,100991.62
2022-11-29T17:01:53.854Z,100994.16
2022-11-29T17:04:23.540Z,100999.66
2022-11-29T17:06:52.954Z,101001.47
2022-11-29T17:09:21.926Z,101001.94
2022-11-29T17:11:48.758Z,101012.16
2022-11-29T17:14:15.482Z,101015.84
2022-11-29T17:16:42.308Z,101018.88
2022-11-29T17:19:13.272Z,101023.69
2022-11-29T17:21:40.040Z,101022.25
2022-11-29T17:24:06.841Z,101024.47
2022-11-29T17:26:33.627Z,101030.22
2022-11-29T17:29:00.314Z,101030.56
2022-11-29T17:31:27.102Z,101035.34
2022-11-29T17:33:54.387Z,101028.12
2022-11-29T17:36:21.698Z,101032.47
2022-11-29T17:38:48.591Z,101041.09
2022-11-29T17:41:16.762Z,101031.09
2022-11-29T17:43:43.522Z,101038.97
2022-11-29T17:46:11.117Z,101041.63
2022-11-29T17:48:41.169Z,101044.97
2022-11-29T17:51:28.764Z,101035.47
2022-11-29T17:53:55.377Z,101042.38
2022-11-29T17:56:25.274Z,101050.19
2022-11-29T17:58:53.023Z,101046.59
2022-11-29T18:01:20.760Z,101043.09
2022-11-29T18:03:48.109Z,101049.59
2022-11-29T18:06:19.612Z,101051.78
2022-11-29T18:08:50.448Z,101046.31
2022-11-29T18:11:25.017Z,101059.44
2022-11-29T18:13:52.890Z,101054.22
2022-11-29T18:16:20.996Z,101060.34
2022-11-29T18:18:48.366Z,101067.78
2022-11-29T18:21:15.190Z,101064.78
2022-11-29T18:23:43.012Z,101063.31
2022-11-29T18:26:14.788Z,101074.22
2022-11-29T18:28:42.245Z,101068.00
2022-11-29T18:31:16.747Z,101068.19
2022-11-29T18:33:44.482Z,101061.06
2022-11-29T18:36:12.565Z,101066.34
2022-11-29T18:38:39.823Z,101061.25
2022-11-29T18:41:08.136Z,101073.19
2022-11-29T18:43:35.181Z,101068.84
2022-11-29T18:46:15.865Z,101046.41
2022-11-29T18:48:43.719Z,101051.84
2022-11-29T18:51:11.613Z,101056.50
2022-11-29T18:53:39.181Z,101056.31
2022-11-29T18:56:11.520Z,101057.09
2022-11-29T18:58:38.665Z,101055.62
2022-11-29T19:01:10.026Z,101055.34
2022-11-29T19:03:38.319Z,101053.78
2022-11-29T19:06:06.281Z,101049.66
2022-11-29T19:08:33.757Z,101053.47
2022-11-29T19:11:11.702Z,101049.66
2022-11-29T19:13:38.920Z,101047.16
2022-11-29T19:16:10.479Z,101053.16
2022-11-29T19:18:39.616Z,101044.88
2022-11-29T19:21:14.184Z,101048.56
2022-11-29T19:23:41.395Z,101050.66
2022-11-29T19:26:09.776Z,101050.47
2022-11-29T19:28:37.245Z,101056.22
2022-11-29T19:31:05.747Z,101058.34
2022-11-29T19:33:36.207Z,101062.28
2022-11-29T19:36:07.089Z,101058.06
2022-11-29T19:38:37.496Z,101059.72
2022-11-29T19:41:27.735Z,101063.38
2022-11-29T19:43:56.228Z,101058.94
2022-11-29T19:46:27.638Z,101066.53
2022-11-29T19:48:55.200Z,101069.41
2022-11-29T19:51:22.738Z,101061.34
2022-11-29T19:53:52.675Z,101062.00
2022-11-29T19:56:20.789Z,101062.88
2022-11-29T19:58:47.745Z,101060.28
2022-11-29T20:01:23.112Z,101060.25
2022-11-29T20:03:50.087Z,101066.16
2022-11-29T20:06:17.087Z,101059.88
2022-11-29T20:08:44.133Z,101065.22
2022-11-29T20:11:15.714Z,101059.53
2022-11-29T20:13:43.583Z,101060.31
2022-11-29T20:16:11.593Z,101058.16
2022-11-29T20:18:39.684Z,101056.38
2022-11-29T20:21:10.979Z,101061.91
2022-11-29T20:23:38.783Z,101056.59
2022-11-29T20:26:08.340Z,101061.06
2022-11-29T20:28:35.485Z,101057.25
2022-11-29T20:31:06.576Z,101058.56
2022-11-29T20:33:33.540Z,101067.53
2022-11-29T20:36:06.817Z,101065.97
2022-11-29T20:39:02.745Z,101062.47
2022-11-29T20:41:45.619Z,101066.00
2022-11-29T20:44:18.279Z,101066.88
2022-11-29T20:46:45.156Z,101061.06
2022-11-29T20:49:15.440Z,101067.03
2022-11-29T20:51:46.593Z,101058.84
2022-11-29T20:54:13.673Z,101065.59
2022-11-29T20:56:40.500Z,101067.66
2022-11-29T20:59:07.229Z,101065.59
2022-11-29T21:01:34.089Z,101060.44
2022-11-29T21:04:00.923Z,101063.75
2022-11-29T21:06:27.681Z,101065.00
2022-11-29T21:08:54.449Z,101062.97
2022-11-29T21:11:21.254Z,101063.22
2022-11-29T21:13:48.169Z,101062.38
2022-11-29T21:16:15.224Z,101063.41
2022-11-29T21:18:42.167Z,101058.34
2022-11-29T21:21:18.105Z,101056.47
2022-11-29T21:23:44.883Z,101066.09
2022-11-29T21:26:11.717Z,101060.75
2022-11-29T21:28:41.823Z,101056.91
2022-11-29T21:31:11.551Z,101054.91
2022-11-29T21:33:38.920Z,101055.53
2022-11-29T21:36:06.428Z,101049.66
2022-11-29T21:38:33.203Z,101050.16
2022-11-29T21:40:59.982Z,101043.59
2022-11-29T21:43:57.830Z,101053.13
2022-11-29T21:46:13.498Z,101048.94
2022-11-29T21:48:42.563Z,101057.50
2022-11-29T21:51:10.408Z,101049.78
2022-11-29T21:53:37.949Z,101039.66
2022-11-29T21:56:08.754Z,101035.09
2022-11-29T21:58:36.381Z,101038.34
2022-11-29T22:01:13.523Z,101033.34
2022-11-29T22:03:41.039Z,101040.81
2022-11-29T22:06:09.317Z,101039.53
2022-11-29T22:08:39.106Z,101042.66
2022-11-29T22:11:10.546Z,101040.53
2022-11-29T22:13:57.826Z,101032.28
2022-11-29T22:16:24.917Z,101031.03
2022-11-29T22:18:51.668Z,101030.81
2022-11-29T22:21:18.455Z,101040.87
2022-11-29T22:23:45.102Z,101025.75
2022-11-29T22:26:12.247Z,101031.03
2022-11-29T22:28:38.981Z,101028.38
2022-11-29T22:31:06.813Z,101029.50
2022-11-29T22:33:33.779Z,101026.72
2022-11-29T22:36:07.278Z,101027.69
2022-11-29T22:38:34.078Z,101025.91
2022-11-29T22:41:05.456Z,101016.66
2022-11-29T22:43:32.881Z,101016.37
2022-11-29T22:46:06.130Z,101019.38
2022-11-29T22:48:38.214Z,101022.50
2022-11-29T22:51:08.559Z,101016.69
2022-11-29T22:53:36.132Z,101017.31
2022-11-29T22:56:04.383Z,101022.56
2022-11-29T22:58:31.103Z,101033.59
2022-11-29T23:01:05.522Z,101022.63
2022-11-29T23:03:36.068Z,101035.41
2022-11-29T23:06:04.113Z,101028.81
2022-11-29T23:08:31.367Z,101032.97
2022-11-29T23:10:58.333Z,101031.00
2022-11-29T23:13:25.557Z,101030.59
2022-11-29T23:15:52.810Z,101019.13
2022-11-29T23:18:19.867Z,101029.66
2022-11-29T23:20:46.573Z,101025.56
2022-11-29T23:23:13.453Z,101026.44
2022-11-29T23:25:46.565Z,101020.44
2022-11-29T23:28:13.236Z,101016.56
2022-11-29T23:30:39.892Z,101017.72
2022-11-29T23:33:06.514Z,101012.47
2022-11-29T23:35:33.451Z,101017.38
2022-11-29T23:38:00.193Z,101015.94
2022-11-29T23:40:26.861Z,101021.72
2022-11-29T23:42:53.614Z,101019.47
2022-11-29T23:45:21.478Z,101022.69
2022-11-29T23:47:48.260Z,101018.69
2022-11-29T23:50:14.930Z,101027.81
2022-11-29T23:52:41.669Z,101022.56
2022-11-29T23:55:09.351Z,101019.47
2022-11-29T23:57:36.112Z,101025.00
